sensor_id;sensor_type;location;lat;lon;timestamp;P1;durP1;ratioP1;P2;durP2;ratioP2
19026;SDS011;9646;52.034;5.554;2023-03-21T00:01:46;10.63;;;9.10;;
19026;SDS011;9646;52.034;5.554;2023-03-21T00:04:15;10.65;;;9.50;;
19026;SDS011;9646;52.034;5.554;2023-03-21T00:06:42;10.88;;;9.68;;
19026;SDS011;9646;52.034;5.554;2023-03-21T00:09:09;12.40;;;9.50;;
19026;SDS011;9646;52.034;5.554;2023-03-21T00:11:38;11.70;;;9.63;;
19026;SDS011;9646;52.034;5.554;2023-03-21T00:14:05;11.85;;;10.18;;
19026;SDS011;9646;52.034;5.554;2023-03-21T00:16:33;11.95;;;10.68;;
19026;SDS011;9646;52.034;5.554;2023-03-21T00:19:01;16.35;;;10.38;;
19026;SDS011;9646;52.034;5.554;2023-03-21T00:21:30;12.45;;;10.82;;
19026;SDS011;9646;52.034;5.554;2023-03-21T00:23:58;14.55;;;10.57;;
19026;SDS011;9646;52.034;5.554;2023-03-21T00:26:26;11.45;;;8.55;;
19026;SDS011;9646;52.034;5.554;2023-03-21T00:28:54;15.85;;;11.20;;
19026;SDS011;9646;52.034;5.554;2023-03-21T00:31:21;11.73;;;10.00;;
19026;SDS011;9646;52.034;5.554;2023-03-21T00:33:48;14.48;;;12.65;;
19026;SDS011;9646;52.034;5.554;2023-03-21T00:36:15;12.35;;;10.75;;
19026;SDS011;9646;52.034;5.554;2023-03-21T00:38:42;15.00;;;12.15;;
19026;SDS011;9646;52.034;5.554;2023-03-21T00:41:10;13.05;;;11.55;;
19026;SDS011;9646;52.034;5.554;2023-03-21T00:43:39;16.55;;;13.48;;
19026;SDS011;9646;52.034;5.554;2023-03-21T00:46:07;11.73;;;10.20;;
19026;SDS011;9646;52.034;5.554;2023-03-21T00:48:34;14.38;;;11.50;;
19026;SDS011;9646;52.034;5.554;2023-03-21T00:51:09;14.35;;;12.57;;
19026;SDS011;9646;52.034;5.554;2023-03-21T00:53:37;15.13;;;13.63;;
19026;SDS011;9646;52.034;5.554;2023-03-21T00:56:04;14.40;;;10.93;;
19026;SDS011;9646;52.034;5.554;2023-03-21T00:58:31;14.95;;;13.35;;
19026;SDS011;9646;52.034;5.554;2023-03-21T01:00:58;14.07;;;12.48;;
19026;SDS011;9646;52.034;5.554;2023-03-21T01:03:28;15.18;;;13.65;;
19026;SDS011;9646;52.034;5.554;2023-03-21T01:05:55;16.58;;;14.63;;
19026;SDS011;9646;52.034;5.554;2023-03-21T01:08:30;15.45;;;13.13;;
19026;SDS011;9646;52.034;5.554;2023-03-21T01:10:59;16.05;;;13.55;;
19026;SDS011;9646;52.034;5.554;2023-03-21T01:13:27;17.38;;;13.45;;
19026;SDS011;9646;52.034;5.554;2023-03-21T01:15:54;16.02;;;13.20;;
19026;SDS011;9646;52.034;5.554;2023-03-21T01:18:23;19.38;;;15.00;;
19026;SDS011;9646;52.034;5.554;2023-03-21T01:20:52;16.08;;;13.88;;
19026;SDS011;9646;52.034;5.554;2023-03-21T01:23:20;18.95;;;14.65;;
19026;SDS011;9646;52.034;5.554;2023-03-21T01:25:48;12.93;;;10.80;;
19026;SDS011;9646;52.034;5.554;2023-03-21T01:28:15;15.40;;;11.80;;
19026;SDS011;9646;52.034;5.554;2023-03-21T01:30:45;19.88;;;15.85;;
19026;SDS011;9646;52.034;5.554;2023-03-21T01:33:12;20.20;;;15.10;;
19026;SDS011;9646;52.034;5.554;2023-03-21T01:35:40;20.67;;;14.43;;
19026;SDS011;9646;52.034;5.554;2023-03-21T01:38:08;22.60;;;14.35;;
19026;SDS011;9646;52.034;5.554;2023-03-21T01:40:36;22.35;;;15.10;;
19026;SDS011;9646;52.034;5.554;2023-03-21T01:43:03;14.55;;;12.40;;
19026;SDS011;9646;52.034;5.554;2023-03-21T01:48:16;16.98;;;12.15;;
19026;SDS011;9646;52.034;5.554;2023-03-21T01:50:44;16.45;;;11.50;;
19026;SDS011;9646;52.034;5.554;2023-03-21T01:53:13;22.45;;;14.30;;
19026;SDS011;9646;52.034;5.554;2023-03-21T01:55:41;21.58;;;15.05;;
19026;SDS011;9646;52.034;5.554;2023-03-21T01:58:08;16.85;;;12.35;;
19026;SDS011;9646;52.034;5.554;2023-03-21T02:00:38;20.58;;;15.15;;
19026;SDS011;9646;52.034;5.554;2023-03-21T02:03:06;17.52;;;12.40;;
19026;SDS011;9646;52.034;5.554;2023-03-21T02:05:36;20.95;;;13.75;;
19026;SDS011;9646;52.034;5.554;2023-03-21T02:08:06;17.10;;;12.68;;
19026;SDS011;9646;52.034;5.554;2023-03-21T02:10:35;18.02;;;12.13;;
19026;SDS011;9646;52.034;5.554;2023-03-21T02:13:03;16.05;;;11.57;;
19026;SDS011;9646;52.034;5.554;2023-03-21T02:15:33;14.63;;;10.35;;
19026;SDS011;9646;52.034;5.554;2023-03-21T02:18:02;17.50;;;13.32;;
19026;SDS011;9646;52.034;5.554;2023-03-21T02:20:41;20.45;;;13.60;;
19026;SDS011;9646;52.034;5.554;2023-03-21T02:23:25;17.15;;;13.63;;
19026;SDS011;9646;52.034;5.554;2023-03-21T02:26:07;17.15;;;12.88;;
19026;SDS011;9646;52.034;5.554;2023-03-21T02:28:39;21.00;;;14.48;;
19026;SDS011;9646;52.034;5.554;2023-03-21T02:31:13;14.95;;;11.65;;
19026;SDS011;9646;52.034;5.554;2023-03-21T02:36:47;19.63;;;13.57;;
19026;SDS011;9646;52.034;5.554;2023-03-21T02:39:15;17.15;;;13.88;;
19026;SDS011;9646;52.034;5.554;2023-03-21T02:41:48;16.15;;;12.93;;
19026;SDS011;9646;52.034;5.554;2023-03-21T02:44:18;21.90;;;13.40;;
19026;SDS011;9646;52.034;5.554;2023-03-21T02:46:48;15.00;;;11.55;;
19026;SDS011;9646;52.034;5.554;2023-03-21T02:49:18;16.40;;;13.80;;
19026;SDS011;9646;52.034;5.554;2023-03-21T02:51:49;18.10;;;12.50;;
19026;SDS011;9646;52.034;5.554;2023-03-21T02:54:17;17.50;;;13.00;;
19026;SDS011;9646;52.034;5.554;2023-03-21T02:56:45;17.80;;;12.88;;
19026;SDS011;9646;52.034;5.554;2023-03-21T02:59:13;21.33;;;14.77;;
19026;SDS011;9646;52.034;5.554;2023-03-21T03:01:41;17.13;;;13.02;;
19026;SDS011;9646;52.034;5.554;2023-03-21T03:04:16;16.80;;;13.00;;
19026;SDS011;9646;52.034;5.554;2023-03-21T03:06:45;16.77;;;11.93;;
19026;SDS011;9646;52.034;5.554;2023-03-21T03:09:22;16.08;;;12.48;;
19026;SDS011;9646;52.034;5.554;2023-03-21T03:11:53;16.17;;;13.52;;
19026;SDS011;9646;52.034;5.554;2023-03-21T03:14:37;14.00;;;11.02;;
19026;SDS011;9646;52.034;5.554;2023-03-21T03:17:09;16.95;;;12.07;;
19026;SDS011;9646;52.034;5.554;2023-03-21T03:19:40;13.30;;;11.00;;
19026;SDS011;9646;52.034;5.554;2023-03-21T03:22:12;16.52;;;12.73;;
19026;SDS011;9646;52.034;5.554;2023-03-21T03:24:43;18.83;;;14.32;;
19026;SDS011;9646;52.034;5.554;2023-03-21T03:27:13;15.45;;;12.02;;
19026;SDS011;9646;52.034;5.554;2023-03-21T03:29:41;16.42;;;12.40;;
19026;SDS011;9646;52.034;5.554;2023-03-21T03:32:11;16.15;;;13.43;;
19026;SDS011;9646;52.034;5.554;2023-03-21T03:34:41;17.27;;;12.68;;
19026;SDS011;9646;52.034;5.554;2023-03-21T03:37:10;20.33;;;14.90;;
19026;SDS011;9646;52.034;5.554;2023-03-21T03:39:39;20.38;;;15.48;;
19026;SDS011;9646;52.034;5.554;2023-03-21T03:42:12;20.02;;;14.80;;
19026;SDS011;9646;52.034;5.554;2023-03-21T03:44:40;14.20;;;12.05;;
19026;SDS011;9646;52.034;5.554;2023-03-21T03:47:08;16.67;;;12.45;;
19026;SDS011;9646;52.034;5.554;2023-03-21T03:49:36;17.00;;;11.82;;
19026;SDS011;9646;52.034;5.554;2023-03-21T03:52:05;17.30;;;12.73;;
19026;SDS011;9646;52.034;5.554;2023-03-21T03:54:35;18.58;;;12.23;;
19026;SDS011;9646;52.034;5.554;2023-03-21T03:57:03;13.90;;;12.40;;
19026;SDS011;9646;52.034;5.554;2023-03-21T03:59:34;18.02;;;12.60;;
19026;SDS011;9646;52.034;5.554;2023-03-21T04:02:01;19.38;;;14.15;;
19026;SDS011;9646;52.034;5.554;2023-03-21T04:04:28;14.95;;;11.40;;
19026;SDS011;9646;52.034;5.554;2023-03-21T04:06:56;20.77;;;13.82;;
19026;SDS011;9646;52.034;5.554;2023-03-21T04:09:23;17.67;;;11.15;;
19026;SDS011;9646;52.034;5.554;2023-03-21T04:11:52;17.88;;;11.23;;
19026;SDS011;9646;52.034;5.554;2023-03-21T04:14:19;16.85;;;10.63;;
19026;SDS011;9646;52.034;5.554;2023-03-21T04:16:48;12.90;;;9.70;;
19026;SDS011;9646;52.034;5.554;2023-03-21T04:19:16;13.57;;;10.40;;
19026;SDS011;9646;52.034;5.554;2023-03-21T04:21:43;13.77;;;10.32;;
19026;SDS011;9646;52.034;5.554;2023-03-21T04:24:10;15.48;;;10.25;;
19026;SDS011;9646;52.034;5.554;2023-03-21T04:26:38;16.17;;;10.32;;
19026;SDS011;9646;52.034;5.554;2023-03-21T04:29:05;10.43;;;8.68;;
19026;SDS011;9646;52.034;5.554;2023-03-21T04:31:33;11.93;;;8.32;;
19026;SDS011;9646;52.034;5.554;2023-03-21T04:34:02;13.50;;;10.07;;
19026;SDS011;9646;52.034;5.554;2023-03-21T04:36:33;14.10;;;8.63;;
19026;SDS011;9646;52.034;5.554;2023-03-21T04:39:07;12.82;;;9.52;;
19026;SDS011;9646;52.034;5.554;2023-03-21T04:41:36;13.20;;;8.38;;
19026;SDS011;9646;52.034;5.554;2023-03-21T04:44:03;14.73;;;9.65;;
19026;SDS011;9646;52.034;5.554;2023-03-21T04:46:30;14.35;;;8.45;;
19026;SDS011;9646;52.034;5.554;2023-03-21T04:48:57;15.02;;;7.63;;
19026;SDS011;9646;52.034;5.554;2023-03-21T04:51:26;12.43;;;6.80;;
19026;SDS011;9646;52.034;5.554;2023-03-21T04:53:53;9.23;;;6.60;;
19026;SDS011;9646;52.034;5.554;2023-03-21T04:56:21;10.15;;;6.40;;
19026;SDS011;9646;52.034;5.554;2023-03-21T04:58:54;12.48;;;6.90;;
19026;SDS011;9646;52.034;5.554;2023-03-21T05:01:21;8.95;;;6.80;;
19026;SDS011;9646;52.034;5.554;2023-03-21T05:03:49;8.60;;;6.38;;
19026;SDS011;9646;52.034;5.554;2023-03-21T05:06:16;10.55;;;6.13;;
19026;SDS011;9646;52.034;5.554;2023-03-21T05:08:45;10.88;;;6.07;;
19026;SDS011;9646;52.034;5.554;2023-03-21T05:11:12;13.55;;;7.10;;
19026;SDS011;9646;52.034;5.554;2023-03-21T05:13:39;10.75;;;7.15;;
19026;SDS011;9646;52.034;5.554;2023-03-21T05:16:07;12.40;;;6.60;;
19026;SDS011;9646;52.034;5.554;2023-03-21T05:18:34;9.05;;;5.75;;
19026;SDS011;9646;52.034;5.554;2023-03-21T05:21:02;11.00;;;5.57;;
19026;SDS011;9646;52.034;5.554;2023-03-21T05:23:31;10.88;;;5.90;;
19026;SDS011;9646;52.034;5.554;2023-03-21T05:26:03;9.93;;;5.95;;
19026;SDS011;9646;52.034;5.554;2023-03-21T05:28:30;12.10;;;5.85;;
19026;SDS011;9646;52.034;5.554;2023-03-21T05:31:00;9.82;;;5.57;;
19026;SDS011;9646;52.034;5.554;2023-03-21T05:33:27;10.30;;;5.70;;
19026;SDS011;9646;52.034;5.554;2023-03-21T05:35:54;8.80;;;4.95;;
19026;SDS011;9646;52.034;5.554;2023-03-21T05:38:21;9.85;;;5.82;;
19026;SDS011;9646;52.034;5.554;2023-03-21T05:40:48;10.07;;;5.40;;
19026;SDS011;9646;52.034;5.554;2023-03-21T05:43:17;10.60;;;5.43;;
19026;SDS011;9646;52.034;5.554;2023-03-21T05:45:44;9.02;;;5.75;;
19026;SDS011;9646;52.034;5.554;2023-03-21T05:48:12;9.23;;;5.75;;
19026;SDS011;9646;52.034;5.554;2023-03-21T05:50:39;10.10;;;5.25;;
19026;SDS011;9646;52.034;5.554;2023-03-21T05:53:06;9.48;;;5.55;;
19026;SDS011;9646;52.034;5.554;2023-03-21T05:55:33;9.77;;;5.55;;
19026;SDS011;9646;52.034;5.554;2023-03-21T05:58:00;8.77;;;5.25;;
19026;SDS011;9646;52.034;5.554;2023-03-21T06:00:28;12.20;;;6.55;;
19026;SDS011;9646;52.034;5.554;2023-03-21T06:02:56;11.40;;;6.47;;
19026;SDS011;9646;52.034;5.554;2023-03-21T06:05:23;14.35;;;7.32;;
19026;SDS011;9646;52.034;5.554;2023-03-21T06:07:50;12.52;;;6.70;;
19026;SDS011;9646;52.034;5.554;2023-03-21T06:10:17;11.18;;;6.80;;
19026;SDS011;9646;52.034;5.554;2023-03-21T06:12:44;9.25;;;6.03;;
19026;SDS011;9646;52.034;5.554;2023-03-21T06:15:11;9.95;;;6.05;;
19026;SDS011;9646;52.034;5.554;2023-03-21T06:17:40;9.20;;;5.07;;
19026;SDS011;9646;52.034;5.554;2023-03-21T06:20:07;11.70;;;7.68;;
19026;SDS011;9646;52.034;5.554;2023-03-21T06:22:35;10.77;;;7.03;;
19026;SDS011;9646;52.034;5.554;2023-03-21T06:25:03;11.02;;;5.78;;
19026;SDS011;9646;52.034;5.554;2023-03-21T06:27:31;11.15;;;6.95;;
19026;SDS011;9646;52.034;5.554;2023-03-21T06:29:58;13.18;;;7.60;;
19026;SDS011;9646;52.034;5.554;2023-03-21T06:32:26;9.07;;;5.85;;
19026;SDS011;9646;52.034;5.554;2023-03-21T06:34:54;16.00;;;7.13;;
19026;SDS011;9646;52.034;5.554;2023-03-21T06:37:22;14.23;;;7.47;;
19026;SDS011;9646;52.034;5.554;2023-03-21T06:39:50;12.38;;;6.38;;
19026;SDS011;9646;52.034;5.554;2023-03-21T06:42:17;11.77;;;6.50;;
19026;SDS011;9646;52.034;5.554;2023-03-21T06:44:44;12.68;;;6.80;;
19026;SDS011;9646;52.034;5.554;2023-03-21T06:47:11;12.88;;;7.65;;
19026;SDS011;9646;52.034;5.554;2023-03-21T06:49:38;12.43;;;6.57;;
19026;SDS011;9646;52.034;5.554;2023-03-21T06:52:09;9.93;;;6.07;;
19026;SDS011;9646;52.034;5.554;2023-03-21T06:54:36;13.52;;;6.25;;
19026;SDS011;9646;52.034;5.554;2023-03-21T06:57:03;10.00;;;5.10;;
19026;SDS011;9646;52.034;5.554;2023-03-21T06:59:30;12.05;;;5.90;;
19026;SDS011;9646;52.034;5.554;2023-03-21T07:01:57;13.10;;;7.97;;
19026;SDS011;9646;52.034;5.554;2023-03-21T07:04:24;10.07;;;5.93;;
19026;SDS011;9646;52.034;5.554;2023-03-21T07:06:52;10.75;;;6.00;;
19026;SDS011;9646;52.034;5.554;2023-03-21T07:09:21;10.82;;;6.60;;
19026;SDS011;9646;52.034;5.554;2023-03-21T07:11:52;9.63;;;5.43;;
19026;SDS011;9646;52.034;5.554;2023-03-21T07:14:19;10.65;;;6.20;;
19026;SDS011;9646;52.034;5.554;2023-03-21T07:16:47;9.45;;;6.15;;
19026;SDS011;9646;52.034;5.554;2023-03-21T07:19:15;12.80;;;6.72;;
19026;SDS011;9646;52.034;5.554;2023-03-21T07:21:42;8.43;;;5.40;;
19026;SDS011;9646;52.034;5.554;2023-03-21T07:24:09;11.25;;;6.35;;
19026;SDS011;9646;52.034;5.554;2023-03-21T07:26:37;13.80;;;6.75;;
19026;SDS011;9646;52.034;5.554;2023-03-21T07:29:05;10.60;;;6.13;;
19026;SDS011;9646;52.034;5.554;2023-03-21T07:31:32;11.05;;;6.60;;
19026;SDS011;9646;52.034;5.554;2023-03-21T07:33:59;12.52;;;6.55;;
19026;SDS011;9646;52.034;5.554;2023-03-21T07:36:27;13.18;;;7.13;;
19026;SDS011;9646;52.034;5.554;2023-03-21T07:38:54;13.20;;;6.10;;
19026;SDS011;9646;52.034;5.554;2023-03-21T07:41:21;12.55;;;6.60;;
19026;SDS011;9646;52.034;5.554;2023-03-21T07:43:50;13.18;;;6.43;;
19026;SDS011;9646;52.034;5.554;2023-03-21T07:46:17;14.57;;;6.35;;
19026;SDS011;9646;52.034;5.554;2023-03-21T07:48:44;11.38;;;5.00;;
19026;SDS011;9646;52.034;5.554;2023-03-21T07:51:11;12.70;;;6.20;;
19026;SDS011;9646;52.034;5.554;2023-03-21T07:53:38;12.02;;;6.65;;
19026;SDS011;9646;52.034;5.554;2023-03-21T07:56:08;14.98;;;6.40;;
19026;SDS011;9646;52.034;5.554;2023-03-21T07:58:35;11.43;;;6.30;;
19026;SDS011;9646;52.034;5.554;2023-03-21T08:01:04;14.98;;;5.97;;
19026;SDS011;9646;52.034;5.554;2023-03-21T08:03:31;10.15;;;5.15;;
19026;SDS011;9646;52.034;5.554;2023-03-21T08:05:58;15.60;;;5.03;;
19026;SDS011;9646;52.034;5.554;2023-03-21T08:08:26;10.32;;;5.38;;
19026;SDS011;9646;52.034;5.554;2023-03-21T08:10:53;8.45;;;4.70;;
19026;SDS011;9646;52.034;5.554;2023-03-21T08:13:20;11.73;;;5.28;;
19026;SDS011;9646;52.034;5.554;2023-03-21T08:15:47;12.13;;;5.72;;
19026;SDS011;9646;52.034;5.554;2023-03-21T08:18:15;13.05;;;6.32;;
19026;SDS011;9646;52.034;5.554;2023-03-21T08:20:43;13.07;;;6.53;;
19026;SDS011;9646;52.034;5.554;2023-03-21T08:23:10;12.13;;;6.40;;
19026;SDS011;9646;52.034;5.554;2023-03-21T08:25:38;10.27;;;5.10;;
19026;SDS011;9646;52.034;5.554;2023-03-21T08:28:05;11.88;;;5.20;;
19026;SDS011;9646;52.034;5.554;2023-03-21T08:30:32;11.45;;;4.88;;
19026;SDS011;9646;52.034;5.554;2023-03-21T08:32:59;9.23;;;5.22;;
19026;SDS011;9646;52.034;5.554;2023-03-21T08:35:28;14.10;;;5.80;;
19026;SDS011;9646;52.034;5.554;2023-03-21T08:37:56;10.10;;;5.25;;
19026;SDS011;9646;52.034;5.554;2023-03-21T08:40:23;8.40;;;4.80;;
19026;SDS011;9646;52.034;5.554;2023-03-21T08:42:50;12.52;;;5.40;;
19026;SDS011;9646;52.034;5.554;2023-03-21T08:45:17;10.85;;;5.47;;
19026;SDS011;9646;52.034;5.554;2023-03-21T08:47:44;11.07;;;5.55;;
19026;SDS011;9646;52.034;5.554;2023-03-21T08:50:13;11.75;;;5.78;;
19026;SDS011;9646;52.034;5.554;2023-03-21T08:52:41;11.95;;;5.32;;
19026;SDS011;9646;52.034;5.554;2023-03-21T08:55:09;6.93;;;4.32;;
19026;SDS011;9646;52.034;5.554;2023-03-21T08:57:36;8.85;;;4.35;;
19026;SDS011;9646;52.034;5.554;2023-03-21T09:00:05;9.23;;;4.80;;
19026;SDS011;9646;52.034;5.554;2023-03-21T09:02:36;11.07;;;4.90;;
19026;SDS011;9646;52.034;5.554;2023-03-21T09:05:04;11.52;;;5.18;;
19026;SDS011;9646;52.034;5.554;2023-03-21T09:07:32;10.05;;;4.63;;
19026;SDS011;9646;52.034;5.554;2023-03-21T09:10:02;10.05;;;4.68;;
19026;SDS011;9646;52.034;5.554;2023-03-21T09:12:29;9.35;;;4.45;;
19026;SDS011;9646;52.034;5.554;2023-03-21T09:14:56;9.65;;;4.70;;
19026;SDS011;9646;52.034;5.554;2023-03-21T09:17:23;8.75;;;3.75;;
19026;SDS011;9646;52.034;5.554;2023-03-21T09:19:51;10.25;;;5.38;;
19026;SDS011;9646;52.034;5.554;2023-03-21T09:22:18;8.95;;;4.93;;
19026;SDS011;9646;52.034;5.554;2023-03-21T09:24:45;9.38;;;4.70;;
19026;SDS011;9646;52.034;5.554;2023-03-21T09:27:14;10.18;;;4.55;;
19026;SDS011;9646;52.034;5.554;2023-03-21T09:29:42;11.20;;;5.10;;
19026;SDS011;9646;52.034;5.554;2023-03-21T09:32:10;9.10;;;4.38;;
19026;SDS011;9646;52.034;5.554;2023-03-21T09:34:37;13.55;;;5.70;;
19026;SDS011;9646;52.034;5.554;2023-03-21T09:37:05;5.90;;;4.00;;
19026;SDS011;9646;52.034;5.554;2023-03-21T09:39:34;13.18;;;5.50;;
19026;SDS011;9646;52.034;5.554;2023-03-21T09:42:04;8.45;;;4.45;;
19026;SDS011;9646;52.034;5.554;2023-03-21T09:44:39;8.65;;;5.35;;
19026;SDS011;9646;52.034;5.554;2023-03-21T09:47:11;10.43;;;4.60;;
19026;SDS011;9646;52.034;5.554;2023-03-21T09:49:45;9.10;;;5.05;;
19026;SDS011;9646;52.034;5.554;2023-03-21T09:52:16;8.88;;;4.90;;
19026;SDS011;9646;52.034;5.554;2023-03-21T09:54:46;11.27;;;5.40;;
19026;SDS011;9646;52.034;5.554;2023-03-21T09:57:15;9.55;;;4.07;;
19026;SDS011;9646;52.034;5.554;2023-03-21T09:59:48;11.35;;;4.28;;
19026;SDS011;9646;52.034;5.554;2023-03-21T10:02:25;6.40;;;4.10;;
19026;SDS011;9646;52.034;5.554;2023-03-21T10:04:56;12.35;;;5.68;;
19026;SDS011;9646;52.034;5.554;2023-03-21T10:07:24;9.32;;;4.28;;
19026;SDS011;9646;52.034;5.554;2023-03-21T10:09:52;9.23;;;4.32;;
19026;SDS011;9646;52.034;5.554;2023-03-21T10:12:21;9.10;;;3.60;;
19026;SDS011;9646;52.034;5.554;2023-03-21T10:14:50;9.35;;;6.00;;
19026;SDS011;9646;52.034;5.554;2023-03-21T10:17:20;10.90;;;5.10;;
19026;SDS011;9646;52.034;5.554;2023-03-21T10:19:48;8.18;;;5.10;;
19026;SDS011;9646;52.034;5.554;2023-03-21T10:22:17;10.05;;;5.65;;
19026;SDS011;9646;52.034;5.554;2023-03-21T10:24:44;7.78;;;4.85;;
19026;SDS011;9646;52.034;5.554;2023-03-21T10:27:11;9.35;;;5.30;;
19026;SDS011;9646;52.034;5.554;2023-03-21T10:29:39;10.98;;;4.60;;
19026;SDS011;9646;52.034;5.554;2023-03-21T10:32:09;10.88;;;5.30;;
19026;SDS011;9646;52.034;5.554;2023-03-21T10:34:38;10.15;;;5.10;;
19026;SDS011;9646;52.034;5.554;2023-03-21T10:37:07;8.85;;;4.15;;
19026;SDS011;9646;52.034;5.554;2023-03-21T10:39:35;7.18;;;4.32;;
19026;SDS011;9646;52.034;5.554;2023-03-21T10:42:03;9.35;;;4.70;;
19026;SDS011;9646;52.034;5.554;2023-03-21T10:44:31;7.50;;;3.95;;
19026;SDS011;9646;52.034;5.554;2023-03-21T10:47:02;11.75;;;5.22;;
19026;SDS011;9646;52.034;5.554;2023-03-21T10:49:31;10.90;;;4.75;;
19026;SDS011;9646;52.034;5.554;2023-03-21T10:52:00;11.00;;;4.93;;
19026;SDS011;9646;52.034;5.554;2023-03-21T10:54:28;11.82;;;5.82;;
19026;SDS011;9646;52.034;5.554;2023-03-21T10:56:57;8.40;;;5.28;;
19026;SDS011;9646;52.034;5.554;2023-03-21T10:59:25;9.60;;;4.72;;
19026;SDS011;9646;52.034;5.554;2023-03-21T11:01:54;10.02;;;4.97;;
19026;SDS011;9646;52.034;5.554;2023-03-21T11:04:23;8.00;;;4.57;;
19026;SDS011;9646;52.034;5.554;2023-03-21T11:06:52;10.88;;;5.90;;
19026;SDS011;9646;52.034;5.554;2023-03-21T11:09:21;10.40;;;5.15;;
19026;SDS011;9646;52.034;5.554;2023-03-21T11:11:50;8.90;;;4.95;;
19026;SDS011;9646;52.034;5.554;2023-03-21T11:14:23;7.70;;;3.53;;
19026;SDS011;9646;52.034;5.554;2023-03-21T11:16:51;7.70;;;4.85;;
19026;SDS011;9646;52.034;5.554;2023-03-21T11:19:18;10.65;;;5.20;;
19026;SDS011;9646;52.034;5.554;2023-03-21T11:21:46;12.55;;;5.05;;
19026;SDS011;9646;52.034;5.554;2023-03-21T11:24:15;10.63;;;5.03;;
19026;SDS011;9646;52.034;5.554;2023-03-21T11:26:43;9.95;;;4.88;;
19026;SDS011;9646;52.034;5.554;2023-03-21T11:29:21;8.52;;;4.35;;
19026;SDS011;9646;52.034;5.554;2023-03-21T11:31:49;9.45;;;4.57;;
19026;SDS011;9646;52.034;5.554;2023-03-21T11:34:24;13.90;;;5.10;;
19026;SDS011;9646;52.034;5.554;2023-03-21T11:36:56;11.57;;;5.05;;
19026;SDS011;9646;52.034;5.554;2023-03-21T11:39:29;11.02;;;5.10;;
19026;SDS011;9646;52.034;5.554;2023-03-21T11:41:56;8.32;;;4.38;;
19026;SDS011;9646;52.034;5.554;2023-03-21T11:44:25;8.80;;;4.72;;
19026;SDS011;9646;52.034;5.554;2023-03-21T11:46:53;11.40;;;4.80;;
19026;SDS011;9646;52.034;5.554;2023-03-21T11:49:20;10.57;;;4.28;;
19026;SDS011;9646;52.034;5.554;2023-03-21T11:51:48;9.43;;;4.97;;
19026;SDS011;9646;52.034;5.554;2023-03-21T11:54:18;9.50;;;4.35;;
19026;SDS011;9646;52.034;5.554;2023-03-21T11:56:49;10.10;;;4.72;;
19026;SDS011;9646;52.034;5.554;2023-03-21T11:59:24;8.93;;;4.55;;
19026;SDS011;9646;52.034;5.554;2023-03-21T12:01:54;11.05;;;5.10;;
19026;SDS011;9646;52.034;5.554;2023-03-21T12:04:27;10.38;;;5.40;;
19026;SDS011;9646;52.034;5.554;2023-03-21T12:06:58;9.23;;;4.78;;
19026;SDS011;9646;52.034;5.554;2023-03-21T12:09:33;9.38;;;4.65;;
19026;SDS011;9646;52.034;5.554;2023-03-21T12:12:08;10.30;;;5.03;;
19026;SDS011;9646;52.034;5.554;2023-03-21T12:14:39;5.97;;;4.10;;
19026;SDS011;9646;52.034;5.554;2023-03-21T12:17:13;11.35;;;5.00;;
19026;SDS011;9646;52.034;5.554;2023-03-21T12:19:55;8.68;;;4.82;;
19026;SDS011;9646;52.034;5.554;2023-03-21T12:22:26;11.40;;;5.50;;
19026;SDS011;9646;52.034;5.554;2023-03-21T12:24:55;8.23;;;5.18;;
19026;SDS011;9646;52.034;5.554;2023-03-21T12:27:27;11.13;;;5.18;;
19026;SDS011;9646;52.034;5.554;2023-03-21T12:30:01;8.65;;;5.18;;
19026;SDS011;9646;52.034;5.554;2023-03-21T12:32:33;13.55;;;5.47;;
19026;SDS011;9646;52.034;5.554;2023-03-21T12:35:08;9.70;;;4.70;;
19026;SDS011;9646;52.034;5.554;2023-03-21T12:37:40;8.70;;;5.05;;
19026;SDS011;9646;52.034;5.554;2023-03-21T12:40:11;11.00;;;4.65;;
19026;SDS011;9646;52.034;5.554;2023-03-21T12:42:47;11.73;;;5.10;;
19026;SDS011;9646;52.034;5.554;2023-03-21T12:45:18;8.77;;;4.95;;
19026;SDS011;9646;52.034;5.554;2023-03-21T12:47:47;9.50;;;4.45;;
19026;SDS011;9646;52.034;5.554;2023-03-21T12:50:17;9.95;;;4.88;;
19026;SDS011;9646;52.034;5.554;2023-03-21T12:52:47;8.48;;;4.88;;
19026;SDS011;9646;52.034;5.554;2023-03-21T12:55:17;10.55;;;4.43;;
19026;SDS011;9646;52.034;5.554;2023-03-21T12:57:47;12.63;;;5.10;;
19026;SDS011;9646;52.034;5.554;2023-03-21T13:00:16;11.50;;;5.22;;
19026;SDS011;9646;52.034;5.554;2023-03-21T13:02:46;10.10;;;5.03;;
19026;SDS011;9646;52.034;5.554;2023-03-21T13:05:16;11.55;;;5.85;;
19026;SDS011;9646;52.034;5.554;2023-03-21T13:07:44;10.20;;;4.82;;
19026;SDS011;9646;52.034;5.554;2023-03-21T13:10:13;9.25;;;5.30;;
19026;SDS011;9646;52.034;5.554;2023-03-21T13:12:42;11.23;;;5.60;;
19026;SDS011;9646;52.034;5.554;2023-03-21T13:17:58;6.95;;;5.13;;
19026;SDS011;9646;52.034;5.554;2023-03-21T13:20:29;10.75;;;5.72;;
19026;SDS011;9646;52.034;5.554;2023-03-21T13:22:58;11.57;;;5.43;;
19026;SDS011;9646;52.034;5.554;2023-03-21T13:25:25;12.43;;;5.70;;
19026;SDS011;9646;52.034;5.554;2023-03-21T13:27:59;9.80;;;5.60;;
19026;SDS011;9646;52.034;5.554;2023-03-21T13:30:28;10.30;;;5.40;;
19026;SDS011;9646;52.034;5.554;2023-03-21T13:33:03;7.78;;;5.38;;
19026;SDS011;9646;52.034;5.554;2023-03-21T13:35:33;12.52;;;5.90;;
19026;SDS011;9646;52.034;5.554;2023-03-21T13:38:02;11.63;;;6.05;;
19026;SDS011;9646;52.034;5.554;2023-03-21T13:40:34;12.50;;;7.32;;
19026;SDS011;9646;52.034;5.554;2023-03-21T13:43:01;11.52;;;7.60;;
19026;SDS011;9646;52.034;5.554;2023-03-21T13:45:30;12.55;;;7.00;;
19026;SDS011;9646;52.034;5.554;2023-03-21T13:47:58;9.40;;;7.00;;
19026;SDS011;9646;52.034;5.554;2023-03-21T13:50:27;10.98;;;7.60;;
19026;SDS011;9646;52.034;5.554;2023-03-21T13:53:17;10.90;;;7.78;;
19026;SDS011;9646;52.034;5.554;2023-03-21T13:55:46;13.00;;;7.85;;
19026;SDS011;9646;52.034;5.554;2023-03-21T13:58:30;13.57;;;7.82;;
19026;SDS011;9646;52.034;5.554;2023-03-21T14:01:10;8.98;;;7.22;;
19026;SDS011;9646;52.034;5.554;2023-03-21T14:03:39;10.55;;;7.40;;
19026;SDS011;9646;52.034;5.554;2023-03-21T14:06:07;11.02;;;6.95;;
19026;SDS011;9646;52.034;5.554;2023-03-21T14:08:34;8.00;;;5.78;;
19026;SDS011;9646;52.034;5.554;2023-03-21T14:11:02;10.48;;;6.10;;
19026;SDS011;9646;52.034;5.554;2023-03-21T14:13:31;10.10;;;6.05;;
19026;SDS011;9646;52.034;5.554;2023-03-21T14:15:59;10.68;;;5.70;;
19026;SDS011;9646;52.034;5.554;2023-03-21T14:18:27;9.30;;;5.72;;
19026;SDS011;9646;52.034;5.554;2023-03-21T14:20:56;11.70;;;5.90;;
19026;SDS011;9646;52.034;5.554;2023-03-21T14:23:24;11.68;;;5.90;;
19026;SDS011;9646;52.034;5.554;2023-03-21T14:25:52;8.85;;;6.07;;
19026;SDS011;9646;52.034;5.554;2023-03-21T14:28:20;8.15;;;5.80;;
19026;SDS011;9646;52.034;5.554;2023-03-21T14:30:49;14.85;;;6.50;;
19026;SDS011;9646;52.034;5.554;2023-03-21T14:33:19;7.60;;;6.03;;
19026;SDS011;9646;52.034;5.554;2023-03-21T14:35:47;8.75;;;5.78;;
19026;SDS011;9646;52.034;5.554;2023-03-21T14:38:19;8.05;;;5.82;;
19026;SDS011;9646;52.034;5.554;2023-03-21T14:40:47;8.18;;;5.97;;
19026;SDS011;9646;52.034;5.554;2023-03-21T14:43:16;8.73;;;6.15;;
19026;SDS011;9646;52.034;5.554;2023-03-21T14:45:45;9.43;;;6.20;;
19026;SDS011;9646;52.034;5.554;2023-03-21T14:48:14;8.63;;;6.13;;
19026;SDS011;9646;52.034;5.554;2023-03-21T14:50:43;11.52;;;6.97;;
19026;SDS011;9646;52.034;5.554;2023-03-21T14:53:13;9.75;;;6.20;;
19026;SDS011;9646;52.034;5.554;2023-03-21T14:55:43;9.50;;;6.55;;
19026;SDS011;9646;52.034;5.554;2023-03-21T14:58:11;9.38;;;6.07;;
19026;SDS011;9646;52.034;5.554;2023-03-21T15:00:38;9.10;;;6.60;;
19026;SDS011;9646;52.034;5.554;2023-03-21T15:03:06;11.40;;;6.75;;
19026;SDS011;9646;52.034;5.554;2023-03-21T15:05:33;10.77;;;5.57;;
19026;SDS011;9646;52.034;5.554;2023-03-21T15:08:04;8.25;;;5.85;;